Time;durP1;ratioP1;P1;durP2;ratioP2;P2;SDS_P1;SDS_P2;PMS_P1;PMS_P2;Temp;Humidity;BMP_temperature;BMP_pressure;BME280_temperature;BME280_humidity;BME280_pressure;Samples;Min_cycle;Max_cycle;Signal;HPM_P1;HPM_P2
2022/03/27 00:00:24;;;;;;;6.90;2.30;;;;;;;-0.49;58.64;101874.95;83834;1334;1003893;-78
2022/03/27 00:02:53;;;;;;;5.60;2.60;;;;;;;-0.53;59.04;101872.45;84529;1333;24250;-77
2022/03/27 00:05:04;;;;;;;5.10;2.10;;;;;;;-0.54;59.06;101872.75;84516;1337;22668;-78
2022/03/27 00:07:16;;;;;;;9.40;3.50;;;;;;;-0.53;59.18;101875.20;84553;1334;22719;-76
2022/03/27 00:09:28;;;;;;;6.30;3.00;;;;;;;-0.55;59.14;101876.52;84472;1333;22577;-77
2022/03/27 00:11:43;;;;;;;7.80;2.50;;;;;;;-0.55;59.47;101873.59;84524;1334;22603;-77
2022/03/27 00:13:55;;;;;;;8.60;2.80;;;;;;;-0.53;59.58;101880.88;84520;1333;24231;-78
2022/03/27 00:16:09;;;;;;;18.20;4.20;;;;;;;-0.52;59.69;101882.77;83766;1336;1003093;-77
2022/03/27 00:18:20;;;;;;;6.70;3.00;;;;;;;-0.52;59.85;101886.71;84555;1330;22719;-77
2022/03/27 00:20:31;;;;;;;9.60;3.20;;;;;;;-0.51;59.70;101891.36;84491;1333;25451;-77
2022/03/27 00:22:41;;;;;;;7.60;2.90;;;;;;;-0.52;59.73;101887.90;84515;1334;23908;-77
2022/03/27 00:24:53;;;;;;;8.70;3.50;;;;;;;-0.53;59.78;101881.21;83770;1333;1003041;-78
2022/03/27 00:27:05;;;;;;;7.80;3.10;;;;;;;-0.53;59.82;101878.45;84426;1336;22604;-78
2022/03/27 00:29:16;;;;;;;7.10;4.20;;;;;;;-0.53;59.85;101878.95;84496;1337;22586;-77
2022/03/27 00:31:25;;;;;;;6.50;3.10;;;;;;;-0.54;59.72;101878.92;84500;1338;25517;-77
2022/03/27 00:33:36;;;;;;;9.50;3.70;;;;;;;-0.55;59.76;101876.15;83770;1331;1003182;-77
2022/03/27 00:35:45;;;;;;;7.50;3.00;;;;;;;-0.58;59.77;101873.33;84452;1338;22622;-77
2022/03/27 00:37:53;;;;;;;10.30;4.30;;;;;;;-0.60;59.78;101876.36;84463;1327;22608;-78
2022/03/27 00:40:02;;;;;;;9.60;3.40;;;;;;;-0.60;59.92;101878.23;84437;1331;22700;-78
2022/03/27 00:42:14;;;;;;;8.90;3.00;;;;;;;-0.61;59.85;101874.41;84470;1337;22865;-78
2022/03/27 00:44:22;;;;;;;7.20;2.70;;;;;;;-0.63;59.89;101874.21;84444;1334;22620;-78
2022/03/27 00:46:34;;;;;;;8.00;2.90;;;;;;;-0.65;59.89;101877.89;84460;1333;22599;-78
2022/03/27 00:48:42;;;;;;;5.90;3.20;;;;;;;-0.68;59.75;101877.10;84442;1333;22617;-77
2022/03/27 00:50:55;;;;;;;7.60;2.50;;;;;;;-0.73;59.80;101875.74;84473;1333;25486;-78
2022/03/27 00:53:06;;;;;;;4.90;2.70;;;;;;;-0.77;60.03;101881.43;84476;1333;22923;-78
2022/03/27 00:55:15;;;;;;;6.90;3.30;;;;;;;-0.83;59.90;101887.26;83785;1332;1002952;-78
2022/03/27 00:57:26;;;;;;;6.20;2.60;;;;;;;-0.89;59.98;101883.48;84470;1337;24251;-78
2022/03/27 00:59:36;;;;;;;9.30;2.70;;;;;;;-0.94;60.27;101888.08;84441;1335;24391;-77
2022/03/27 01:01:45;;;;;;;6.70;2.60;;;;;;;-1.00;60.16;101886.86;84479;1333;22847;-77
2022/03/27 01:03:57;;;;;;;7.40;2.90;;;;;;;-1.06;60.45;101883.26;84473;1333;22583;-78
2022/03/27 01:06:08;;;;;;;9.80;3.20;;;;;;;-1.08;60.66;101884.02;84483;1333;22609;-78
2022/03/27 01:09:35;;;;;;;6.80;3.00;;;;;;;-1.10;60.70;101886.02;84472;1332;23341;-77
2022/03/27 01:10:47;;;;;;;10.10;3.10;;;;;;;-1.11;60.83;101879.28;84464;1335;24095;-78
2022/03/27 01:13:00;;;;;;;7.90;2.60;;;;;;;-1.11;60.90;101881.17;84470;1332;25496;-78
2022/03/27 01:15:27;;;;;;;5.90;2.20;;;;;;;-1.12;60.88;101882.17;84478;1335;22609;-78
2022/03/27 01:17:36;;;;;;;7.30;2.90;;;;;;;-1.13;61.20;101886.27;84457;1333;25456;-77
2022/03/27 01:19:49;;;;;;;3.80;2.50;;;;;;;-1.14;61.25;101883.46;84477;1332;22981;-77
2022/03/27 01:22:00;;;;;;;3.70;2.20;;;;;;;-1.13;61.31;101884.38;84498;1334;24245;-78
2022/03/27 01:24:10;;;;;;;4.90;2.40;;;;;;;-1.12;61.32;101882.17;84451;1333;22662;-78
2022/03/27 01:26:22;;;;;;;7.50;3.00;;;;;;;-1.14;61.24;101880.75;84424;1335;23979;-78
2022/03/27 01:28:33;;;;;;;7.80;2.50;;;;;;;-1.16;61.39;101883.92;84465;1330;22729;-77
2022/03/27 01:30:42;;;;;;;7.60;3.00;;;;;;;-1.18;61.42;101878.36;84493;1333;22740;-77
2022/03/27 01:32:53;;;;;;;4.10;2.30;;;;;;;-1.22;61.37;101882.36;83756;1333;1003873;-77
2022/03/27 01:35:03;;;;;;;6.00;2.20;;;;;;;-1.25;61.49;101884.64;84488;1333;24342;-78
2022/03/27 01:37:14;;;;;;;8.00;2.50;;;;;;;-1.28;61.75;101883.01;84469;1333;22601;-77
2022/03/27 01:39:26;;;;;;;12.80;3.00;;;;;;;-1.32;61.71;101887.33;83744;1333;1003470;-78
2022/03/27 01:41:35;;;;;;;8.90;2.40;;;;;;;-1.34;61.77;101883.64;84483;1333;22603;-78
2022/03/27 01:43:44;;;;;;;8.30;2.60;;;;;;;-1.36;61.73;101885.14;84460;1330;22610;-77
2022/03/27 01:45:55;;;;;;;3.80;2.00;;;;;;;-1.38;61.89;101884.35;84440;1334;22598;-78
2022/03/27 01:48:06;;;;;;;9.40;2.70;;;;;;;-1.41;62.04;101883.40;84450;1333;22615;-77
2022/03/27 01:50:16;;;;;;;5.60;2.50;;;;;;;-1.42;62.01;101889.68;84431;1330;22617;-78
2022/03/27 01:52:25;;;;;;;3.90;2.40;;;;;;;-1.44;62.07;101898.17;84480;1333;23068;-77
2022/03/27 01:54:39;;;;;;;3.90;1.70;;;;;;;-1.48;62.09;101894.27;84474;1333;25268;-78
2022/03/27 01:56:49;;;;;;;8.90;2.50;;;;;;;-1.52;62.28;101897.73;83746;1334;1002917;-77
2022/03/27 01:59:01;;;;;;;10.90;1.90;;;;;;;-1.54;62.34;101896.96;84426;1336;22707;-77
2022/03/27 02:01:11;;;;;;;14.50;2.30;;;;;;;-1.58;62.28;101902.15;84431;1336;22697;-77
2022/03/27 02:03:20;;;;;;;5.50;2.10;;;;;;;-1.61;62.31;101902.05;84466;1330;22593;-78
2022/03/27 02:05:32;;;;;;;6.80;2.40;;;;;;;-1.62;62.53;101901.99;84473;1333;23949;-77
2022/03/27 02:07:43;;;;;;;6.70;1.90;;;;;;;-1.63;62.45;101902.30;84478;1333;22598;-77
2022/03/27 02:09:52;;;;;;;10.70;2.20;;;;;;;-1.63;62.63;101903.65;83765;1330;1003335;-77
2022/03/27 02:12:05;;;;;;;13.30;3.40;;;;;;;-1.62;62.67;101910.37;84472;1333;22589;-77
2022/03/27 02:14:13;;;;;;;5.30;2.60;;;;;;;-1.62;62.87;101913.29;84491;1335;22594;-77
2022/03/27 02:16:23;;;;;;;6.10;2.80;;;;;;;-1.62;62.74;101913.98;84454;1332;26485;-78
2022/03/27 02:18:32;;;;;;;8.30;2.50;;;;;;;-1.64;62.95;101920.23;84454;1333;22755;-76
2022/03/27 02:20:44;;;;;;;8.20;2.80;;;;;;;-1.68;62.95;101918.39;84419;1334;24364;-78
2022/03/27 02:22:56;;;;;;;7.30;3.40;;;;;;;-1.70;62.76;101920.86;84443;1328;22687;-77
2022/03/27 02:25:05;;;;;;;7.60;2.90;;;;;;;-1.72;62.96;101919.24;84484;1333;22595;-77
2022/03/27 02:27:14;;;;;;;6.10;3.00;;;;;;;-1.77;62.91;101926.42;84467;1333;22612;-77
2022/03/27 02:29:22;;;;;;;8.80;4.60;;;;;;;-1.83;63.12;101928.77;84481;1331;22693;-77
2022/03/27 02:31:36;;;;;;;7.50;3.20;;;;;;;-1.88;63.25;101920.87;84468;1332;23974;-77
2022/03/27 02:33:44;;;;;;;8.60;3.00;;;;;;;-1.93;63.42;101925.14;84462;1332;22614;-78
2022/03/27 02:35:53;;;;;;;5.80;3.00;;;;;;;-1.99;63.41;101928.14;84475;1332;22622;-77
2022/03/27 02:38:06;;;;;;;8.10;2.80;;;;;;;-2.05;63.57;101929.30;84427;1335;22762;-77
2022/03/27 02:40:15;;;;;;;8.80;2.80;;;;;;;-2.10;63.56;101930.48;84490;1333;22576;-77
2022/03/27 02:42:23;;;;;;;7.80;2.70;;;;;;;-2.14;63.73;101935.59;84469;1330;22972;-76
2022/03/27 02:44:35;;;;;;;6.50;2.80;;;;;;;-2.16;64.05;101942.54;84476;1332;22610;-78
2022/03/27 02:46:45;;;;;;;4.50;3.20;;;;;;;-2.15;64.18;101936.77;84482;1333;25334;-76
2022/03/27 02:48:56;;;;;;;4.50;2.60;;;;;;;-2.14;64.35;101942.13;84465;1332;25494;-77
2022/03/27 02:51:05;;;;;;;10.70;3.30;;;;;;;-2.15;64.31;101945.50;84474;1332;22773;-77
2022/03/27 02:53:17;;;;;;;11.10;3.00;;;;;;;-2.17;64.23;101949.71;84431;1338;22590;-77
2022/03/27 02:55:26;;;;;;;7.30;2.90;;;;;;;-2.20;64.29;101955.23;84483;1333;22601;-77
2022/03/27 02:57:35;;;;;;;8.20;2.70;;;;;;;-2.22;64.42;101956.86;84432;1335;22600;-77
2022/03/27 02:59:44;;;;;;;8.20;2.80;;;;;;;-2.24;64.66;101953.50;84460;1332;25089;-78
2022/03/27 03:01:53;;;;;;;7.00;3.10;;;;;;;-2.28;64.57;101952.51;84457;1332;22609;-77
2022/03/27 03:04:05;;;;;;;10.00;3.70;;;;;;;-2.32;64.64;101956.11;84427;1336;22826;-77
2022/03/27 03:06:17;;;;;;;6.40;2.90;;;;;;;-2.35;64.83;101954.12;84490;1332;22603;-77
2022/03/27 03:08:24;;;;;;;7.70;2.80;;;;;;;-2.38;65.00;101955.37;84467;1330;22709;-77
2022/03/27 03:10:33;;;;;;;9.10;3.00;;;;;;;-2.41;65.01;101952.17;84471;1335;22665;-77
2022/03/27 03:12:42;;;;;;;13.40;3.30;;;;;;;-2.42;65.17;101949.39;84466;1334;24261;-77
2022/03/27 03:14:55;;;;;;;8.80;4.30;;;;;;;-2.46;65.43;101954.72;84441;1334;23597;-77
2022/03/27 03:17:05;;;;;;;8.30;3.20;;;;;;;-2.49;65.55;101960.19;84424;1336;22637;-77
2022/03/27 03:19:14;;;;;;;8.80;3.60;;;;;;;-2.50;65.61;101963.94;83758;1330;1003381;-78
2022/03/27 03:21:23;;;;;;;7.20;2.80;;;;;;;-2.51;65.71;101962.89;84457;1333;22634;-78
2022/03/27 03:23:32;;;;;;;8.50;5.10;;;;;;;-2.50;65.69;101961.16;84455;1332;22795;-77
2022/03/27 03:25:44;;;;;;;8.90;3.20;;;;;;;-2.49;65.77;101958.48;84457;1336;22606;-77
2022/03/27 03:27:53;;;;;;;7.10;3.60;;;;;;;-2.49;65.90;101963.95;84448;1333;22782;-78
2022/03/27 03:30:02;;;;;;;8.30;3.10;;;;;;;-2.50;65.89;101967.15;84432;1336;23096;-77
2022/03/27 03:32:12;;;;;;;7.00;3.00;;;;;;;-2.52;65.96;101965.53;84485;1334;25250;-77
2022/03/27 03:34:21;;;;;;;11.90;3.80;;;;;;;-2.55;66.07;101964.95;84457;1337;25462;-77
2022/03/27 03:36:32;;;;;;;6.90;2.70;;;;;;;-2.57;66.09;101969.45;84462;1333;22656;-77
2022/03/27 03:38:41;;;;;;;10.40;3.60;;;;;;;-2.61;66.07;101975.63;84436;1336;25316;-78
2022/03/27 03:40:52;;;;;;;9.40;3.70;;;;;;;-2.64;66.19;101977.73;82161;1336;3197027;-77
2022/03/27 03:43:01;;;;;;;7.80;3.00;;;;;;;-2.68;66.05;101990.20;84474;1333;23953;-78
2022/03/27 03:45:11;;;;;;;9.60;2.80;;;;;;;-2.72;66.29;101992.23;84474;1334;22605;-77
2022/03/27 03:47:20;;;;;;;7.90;2.90;;;;;;;-2.74;66.23;101993.51;84449;1332;22816;-76
2022/03/27 03:49:29;;;;;;;8.40;2.80;;;;;;;-2.77;66.40;101995.76;84423;1336;22628;-76
2022/03/27 03:51:37;;;;;;;10.00;3.70;;;;;;;-2.79;66.44;102003.89;84451;1333;22593;-78
2022/03/27 03:53:49;;;;;;;11.10;3.30;;;;;;;-2.80;66.60;102005.54;84452;1333;23070;-77
2022/03/27 03:55:58;;;;;;;9.80;3.20;;;;;;;-2.82;66.66;102002.38;84466;1334;22593;-76
2022/03/27 03:58:07;;;;;;;7.30;3.60;;;;;;;-2.83;66.84;102011.08;84480;1336;25512;-77
2022/03/27 04:00:19;;;;;;;10.30;2.80;;;;;;;-2.81;66.90;102016.92;84474;1325;22945;-77
2022/03/27 04:02:29;;;;;;;9.90;3.60;;;;;;;-2.80;66.87;102013.23;84476;1333;22601;-77
2022/03/27 04:04:41;;;;;;;5.90;2.70;;;;;;;-2.78;67.13;102013.68;84458;1333;23106;-77
2022/03/27 04:06:50;;;;;;;9.40;4.50;;;;;;;-2.76;67.05;102014.59;84465;1331;22948;-77
2022/03/27 04:08:58;;;;;;;7.50;3.90;;;;;;;-2.76;66.96;102016.34;84473;1332;23903;-77
2022/03/27 04:11:09;;;;;;;7.20;3.00;;;;;;;-2.78;66.99;102014.19;84444;1334;25278;-77
2022/03/27 04:13:18;;;;;;;9.10;3.30;;;;;;;-2.80;67.10;102012.06;84463;1336;25969;-76
2022/03/27 04:15:26;;;;;;;8.00;3.20;;;;;;;-2.83;67.04;102013.13;83729;1336;1005206;-77
2022/03/27 04:17:35;;;;;;;6.40;2.90;;;;;;;-2.85;67.08;102020.54;83782;1333;1015779;-77
2022/03/27 04:19:46;;;;;;;12.00;3.90;;;;;;;-2.87;67.08;102022.19;83742;1332;1002944;-75
2022/03/27 04:21:55;;;;;;;13.60;3.30;;;;;;;-2.87;67.36;102024.89;84481;1334;22831;-77
2022/03/27 04:24:04;;;;;;;7.10;3.80;;;;;;;-2.89;67.32;102026.37;84362;1331;22601;-76
2022/03/27 04:26:13;;;;;;;8.70;2.90;;;;;;;-2.91;67.39;102033.63;84461;1333;26739;-77
2022/03/27 04:28:24;;;;;;;6.50;2.80;;;;;;;-2.88;67.56;102034.75;84455;1333;22616;-77
2022/03/27 04:30:34;;;;;;;9.40;3.50;;;;;;;-2.88;67.61;102033.92;84474;1332;25313;-77
2022/03/27 04:32:45;;;;;;;7.70;3.10;;;;;;;-2.86;67.76;102041.14;84472;1330;22765;-77
2022/03/27 04:35:07;;;;;;;6.20;3.10;;;;;;;-2.81;67.79;102046.85;84462;1332;24061;-77
2022/03/27 04:37:16;;;;;;;6.30;2.80;;;;;;;-2.74;67.90;102044.41;84441;1336;22716;-78
2022/03/27 04:39:25;;;;;;;6.60;3.00;;;;;;;-2.67;67.98;102042.66;84403;1332;22548;-77
2022/03/27 04:41:33;;;;;;;8.90;3.40;;;;;;;-2.61;67.93;102039.88;84352;1335;23654;-77
2022/03/27 04:43:47;;;;;;;7.30;3.00;;;;;;;-2.56;67.89;102043.43;84368;1335;22590;-77
2022/03/27 04:45:57;;;;;;;12.60;3.80;;;;;;;-2.53;67.77;102044.11;83680;1331;1016139;-77
2022/03/27 04:48:07;;;;;;;9.40;4.40;;;;;;;-2.49;67.78;102045.81;84391;1336;24307;-76
2022/03/27 04:50:15;;;;;;;6.50;3.60;;;;;;;-2.46;67.84;102049.19;84383;1335;22774;-76
2022/03/27 04:52:23;;;;;;;7.70;3.50;;;;;;;-2.42;67.83;102060.65;84389;1336;22617;-77
2022/03/27 04:54:35;;;;;;;7.40;3.30;;;;;;;-2.38;67.95;102060.45;83671;1335;1002488;-76
2022/03/27 04:56:47;;;;;;;6.10;3.10;;;;;;;-2.31;68.05;102064.15;84387;1335;24659;-77
2022/03/27 04:58:55;;;;;;;8.70;3.00;;;;;;;-2.23;67.89;102065.02;84380;1331;22684;-77
2022/03/27 05:01:04;;;;;;;8.10;3.90;;;;;;;-2.15;67.91;102059.54;84346;1335;22806;-76
2022/03/27 05:03:17;;;;;;;10.30;3.50;;;;;;;-2.05;67.93;102056.01;84374;1335;22564;-76
2022/03/27 05:05:26;;;;;;;7.80;3.40;;;;;;;-1.95;67.77;102055.73;84357;1333;22687;-77
2022/03/27 05:07:38;;;;;;;7.60;3.10;;;;;;;-1.82;67.82;102055.72;84392;1334;23867;-76
2022/03/27 05:09:46;;;;;;;7.20;3.10;;;;;;;-1.67;67.72;102062.64;84406;1336;25265;-76
2022/03/27 05:11:58;;;;;;;8.00;3.10;;;;;;;-1.52;67.63;102067.67;84408;1335;25441;-77
2022/03/27 05:14:08;;;;;;;11.20;3.60;;;;;;;-1.30;67.68;102070.72;84399;1336;22602;-77
2022/03/27 05:16:16;;;;;;;7.60;2.90;;;;;;;-1.11;67.51;102071.63;84412;1335;25515;-76
2022/03/27 05:18:24;;;;;;;7.20;3.40;;;;;;;-0.96;67.04;102071.48;84379;1333;22630;-77
2022/03/27 05:20:39;;;;;;;9.70;4.00;;;;;;;-0.84;66.85;102076.71;84364;1332;22630;-77
2022/03/27 05:22:51;;;;;;;9.90;2.90;;;;;;;-0.67;66.84;102078.71;84412;1337;22630;-77
2022/03/27 05:25:00;;;;;;;9.40;3.50;;;;;;;-0.46;66.55;102090.55;84387;1336;22597;-78
2022/03/27 05:27:08;;;;;;;8.60;3.40;;;;;;;-0.27;66.16;102094.27;84376;1335;22811;-78
2022/03/27 05:29:16;;;;;;;11.50;3.10;;;;;;;-0.11;65.88;102092.42;84397;1336;25262;-78
2022/03/27 05:31:25;;;;;;;12.30;3.80;;;;;;;0.03;65.60;102090.64;84357;1336;22610;-78
2022/03/27 05:33:34;;;;;;;13.40;4.10;;;;;;;0.14;65.30;102094.61;83676;1335;1002984;-78
2022/03/27 05:35:42;;;;;;;8.20;3.80;;;;;;;0.22;64.89;102094.72;84400;1335;22799;-78
2022/03/27 05:37:54;;;;;;;9.00;2.70;;;;;;;0.31;64.58;102096.02;84380;1335;22871;-78
2022/03/27 05:40:08;;;;;;;9.50;4.00;;;;;;;0.36;64.35;102094.13;84341;1336;24002;-77
2022/03/27 05:42:17;;;;;;;6.80;2.90;;;;;;;0.44;64.26;102093.69;84309;1338;22601;-77
2022/03/27 05:44:25;;;;;;;6.10;2.80;;;;;;;0.53;64.23;102090.35;84392;1328;22632;-77
2022/03/27 05:46:34;;;;;;;6.40;2.80;;;;;;;0.67;64.10;102090.26;84393;1335;22779;-76
2022/03/27 05:48:46;;;;;;;6.90;1.90;;;;;;;0.84;64.19;102088.37;84404;1335;25278;-76
2022/03/27 05:50:54;;;;;;;5.10;1.80;;;;;;;1.02;63.85;102096.77;84384;1334;22595;-76
2022/03/27 05:53:04;;;;;;;5.60;2.60;;;;;;;1.26;63.89;102103.64;84385;1333;22834;-76
2022/03/27 05:55:14;;;;;;;4.50;2.60;;;;;;;1.56;63.69;102104.27;84391;1335;25462;-77
2022/03/27 05:57:24;;;;;;;;;;;;;;;2.06;63.73;102104.36;84389;1335;22574;-77
2022/03/27 05:59:36;;;;;;;8.10;2.10;;;;;;;2.74;63.00;102108.54;84377;1335;22606;-77
2022/03/27 06:01:45;;;;;;;4.80;2.30;;;;;;;3.48;62.76;102108.16;84367;1336;22604;-77
2022/03/27 06:03:57;;;;;;;8.10;2.80;;;;;;;4.55;62.16;102096.98;84315;1336;22650;-78
2022/03/27 06:06:08;;;;;;;8.60;3.80;;;;;;;5.76;60.18;102091.34;84315;1339;22590;-76
2022/03/27 06:08:17;;;;;;;4.60;2.30;;;;;;;6.85;57.00;102098.91;82987;1338;1003874;-76
2022/03/27 06:10:31;;;;;;;6.30;2.20;;;;;;;7.97;54.24;102099.40;84370;1335;22809;-79
2022/03/27 06:12:40;;;;;;;2.90;1.60;;;;;;;9.03;50.92;102094.02;84420;1335;22600;-79
2022/03/27 06:14:49;;;;;;;4.20;2.20;;;;;;;9.89;47.94;102097.01;84395;1335;22605;-78
2022/03/27 06:17:00;;;;;;;3.20;1.80;;;;;;;10.63;45.79;102099.33;84370;1336;22735;-78
2022/03/27 06:19:09;;;;;;;5.70;2.00;;;;;;;11.47;43.34;102104.39;84388;1335;22606;-79
2022/03/27 06:21:17;;;;;;;4.90;2.50;;;;;;;12.14;40.53;102105.70;84426;1337;22718;-77
2022/03/27 06:23:26;;;;;;;6.70;2.40;;;;;;;12.49;39.32;102109.63;84368;1335;23981;-77
2022/03/27 06:25:39;;;;;;;3.10;1.40;;;;;;;12.98;38.29;102115.51;84377;1335;24240;-77
2022/03/27 06:27:48;;;;;;;4.40;2.30;;;;;;;13.35;35.54;102113.02;84396;1335;22594;-76
2022/03/27 06:29:57;;;;;;;4.60;2.00;;;;;;;13.52;35.36;102116.70;84387;1335;22672;-77
2022/03/27 06:32:11;;;;;;;3.00;1.60;;;;;;;13.82;34.37;102114.07;84382;1339;24254;-77
2022/03/27 06:34:23;;;;;;;5.40;1.40;;;;;;;14.08;33.17;102115.73;84408;1330;24383;-77
2022/03/27 06:36:31;;;;;;;2.00;1.40;;;;;;;14.32;32.35;102117.40;84349;1335;23970;-76
2022/03/27 06:38:40;;;;;;;6.20;1.30;;;;;;;14.52;31.80;102120.40;84357;1339;23938;-77
2022/03/27 06:40:49;;;;;;;2.70;1.30;;;;;;;14.59;31.20;102124.61;84387;1336;22636;-79
2022/03/27 06:43:01;;;;;;;2.60;1.70;;;;;;;14.30;31.20;102125.52;84369;1335;22611;-80
2022/03/27 06:45:12;;;;;;;3.60;1.70;;;;;;;14.02;31.45;102125.52;84377;1335;22925;-79
2022/03/27 06:47:20;;;;;;;4.00;1.60;;;;;;;13.96;31.30;102124.79;84386;1335;25373;-79
2022/03/27 06:49:32;;;;;;;3.90;1.60;;;;;;;14.26;31.05;102122.10;84382;1335;22717;-78
2022/03/27 06:51:47;;;;;;;2.90;1.60;;;;;;;14.86;29.44;102122.48;84400;1335;22616;-79
2022/03/27 06:53:57;;;;;;;3.90;1.60;;;;;;;15.27;29.35;102123.41;84407;1335;25331;-79
2022/03/27 06:56:07;;;;;;;3.10;1.40;;;;;;;15.77;28.55;102121.55;84371;1335;22603;-79
2022/03/27 06:58:17;;;;;;;5.10;1.20;;;;;;;16.33;27.10;102124.48;84379;1338;22601;-82
2022/03/27 07:03:11;;;;;;;3.60;1.20;;;;;;;16.99;25.35;102139.44;84386;1335;23093;-81
2022/03/27 07:05:22;;;;;;;2.80;1.40;;;;;;;17.01;25.01;102133.52;84438;1334;25317;-80
2022/03/27 07:07:34;;;;;;;4.10;1.60;;;;;;;16.74;25.00;102145.08;84428;1336;22627;-79
2022/03/27 07:09:44;;;;;;;2.80;1.10;;;;;;;16.42;24.64;102143.88;84478;1335;25324;-81
2022/03/27 07:11:55;;;;;;;2.70;1.50;;;;;;;16.25;24.93;102141.98;84503;1332;25422;-78
2022/03/27 07:14:07;;;;;;;5.40;1.20;;;;;;;15.99;25.16;102145.29;84462;1333;22595;-79
2022/03/27 07:16:19;;;;;;;1.50;1.20;;;;;;;15.48;25.59;102149.52;84504;1333;22600;-79
2022/03/27 07:18:29;;;;;;;4.50;1.10;;;;;;;15.37;25.26;102151.44;84419;1334;22603;-79
2022/03/27 07:20:42;;;;;;;4.50;1.30;;;;;;;15.63;24.75;102146.95;84433;1334;22590;-77
2022/03/27 07:22:57;;;;;;;2.10;0.90;;;;;;;15.86;24.56;102151.19;84478;1334;22593;-89
2022/03/27 07:25:11;;;;;;;2.70;1.20;;;;;;;16.09;24.18;102146.59;84528;1333;22619;-77
2022/03/27 07:27:23;;;;;;;4.30;1.40;;;;;;;16.27;23.88;102147.40;84466;1336;22842;-77
2022/03/27 07:29:32;;;;;;;4.00;1.30;;;;;;;16.41;23.58;102147.09;84435;1336;22698;-77
2022/03/27 07:31:42;;;;;;;4.90;1.00;;;;;;;16.41;23.67;102149.89;84480;1333;22614;-77
2022/03/27 07:33:52;;;;;;;3.80;2.00;;;;;;;16.65;23.27;102154.20;84443;1334;22537;-76
2022/03/27 07:36:01;;;;;;;2.00;1.30;;;;;;;16.93;23.35;102155.86;84439;1336;22609;-72
2022/03/27 07:38:13;;;;;;;2.60;1.80;;;;;;;17.33;23.12;102157.39;84466;1330;22572;-74
2022/03/27 07:40:21;;;;;;;2.60;1.00;;;;;;;17.61;22.69;102153.33;84459;1336;24349;-78
2022/03/27 07:42:34;;;;;;;1.60;0.90;;;;;;;17.84;21.72;102152.09;84457;1333;24425;-78
2022/03/27 07:44:44;;;;;;;1.90;1.30;;;;;;;18.15;21.05;102144.83;84439;1334;22607;-78
2022/03/27 07:46:58;;;;;;;2.30;1.20;;;;;;;18.52;20.37;102145.58;84431;1338;22719;-77
2022/03/27 07:49:08;;;;;;;2.60;1.50;;;;;;;18.84;20.77;102144.52;84442;1334;25712;-78
2022/03/27 07:51:20;;;;;;;3.40;1.20;;;;;;;19.11;20.25;102148.45;84471;1336;22748;-77
2022/03/27 07:53:28;;;;;;;5.10;1.30;;;;;;;19.31;19.49;102147.88;84447;1334;23977;-78
2022/03/27 07:55:38;;;;;;;3.00;0.80;;;;;;;19.65;19.16;102148.10;84475;1334;22589;-78
2022/03/27 07:57:47;;;;;;;4.40;1.20;;;;;;;19.85;17.89;102148.90;84458;1333;22618;-77
2022/03/27 07:59:56;;;;;;;0.90;0.80;;;;;;;19.98;17.70;102147.35;84454;1338;22640;-77
2022/03/27 08:02:05;;;;;;;3.40;1.00;;;;;;;20.16;16.94;102147.52;84466;1333;25303;-77
2022/03/27 08:04:18;;;;;;;1.50;1.00;;;;;;;20.12;16.37;102139.41;84469;1334;25394;-79
2022/03/27 08:06:36;;;;;;;2.80;0.80;;;;;;;20.06;16.31;102139.16;84476;1337;22583;-79
2022/03/27 08:08:44;;;;;;;1.30;0.90;;;;;;;20.00;15.79;102132.38;84447;1334;22698;-77
2022/03/27 08:10:55;;;;;;;1.70;1.10;;;;;;;20.00;15.77;102127.42;84520;1333;24321;-79
2022/03/27 08:13:04;;;;;;;1.60;1.10;;;;;;;20.12;15.37;102126.66;84477;1333;22649;-78
2022/03/27 08:15:24;;;;;;;0.80;0.50;;;;;;;20.31;15.19;102127.11;84489;1332;22594;-78
2022/03/27 08:17:34;;;;;;;1.40;1.00;;;;;;;20.27;14.79;102117.37;84478;1333;24437;-79
2022/03/27 08:19:43;;;;;;;1.90;0.80;;;;;;;20.19;14.61;102114.09;84477;1332;22596;-79
2022/03/27 08:21:53;;;;;;;1.50;0.70;;;;;;;20.07;14.61;102118.94;84454;1337;23061;-78
2022/03/27 08:24:03;;;;;;;1.50;0.70;;;;;;;20.09;14.57;102120.61;84457;1337;22615;-83
2022/03/27 08:28:45;;;;;;;1.10;0.60;;;;;;;20.02;14.58;102133.73;84436;1337;22838;-79
2022/03/27 08:30:54;;;;;;;1.40;1.30;;;;;;;19.89;14.73;102138.94;84500;1338;22720;-77
2022/03/27 08:33:04;;;;;;;2.20;0.70;;;;;;;19.87;15.03;102139.22;84450;1338;25409;-78
2022/03/27 08:35:17;;;;;;;0.90;0.60;;;;;;;19.94;14.90;102137.64;84449;1334;22736;-79
2022/03/27 08:37:26;;;;;;;1.40;0.80;;;;;;;20.12;14.81;102134.63;84438;1335;22594;-80
2022/03/27 08:39:34;;;;;;;2.10;0.80;;;;;;;20.46;14.36;102134.52;84456;1333;22664;-79
2022/03/27 08:41:45;;;;;;;4.60;0.90;;;;;;;20.66;13.94;102135.09;84485;1332;22596;-80
2022/03/27 08:44:05;;;;;;;3.70;1.00;;;;;;;20.77;13.83;102141.39;84453;1333;22752;-82
2022/03/27 08:46:14;;;;;;;2.60;0.90;;;;;;;20.85;13.95;102142.78;84489;1325;22628;-79
2022/03/27 08:48:26;;;;;;;3.00;0.80;;;;;;;21.00;13.79;102145.14;84470;1334;22599;-82
2022/03/27 08:50:44;;;;;;;5.70;1.00;;;;;;;20.88;13.89;102139.41;84486;1334;22618;-78
2022/03/27 08:53:00;;;;;;;1.40;0.70;;;;;;;20.64;13.82;102144.75;84482;1332;22606;-82
2022/03/27 08:55:13;;;;;;;1.10;0.80;;;;;;;20.41;13.90;102148.23;84481;1333;22598;-76
2022/03/27 08:57:31;;;;;;;2.10;0.80;;;;;;;20.02;13.97;102145.59;84489;1334;22599;-75
2022/03/27 08:59:43;;;;;;;2.20;0.90;;;;;;;19.68;14.37;102150.55;84433;1333;23381;-77
2022/03/27 09:01:51;;;;;;;1.60;1.00;;;;;;;19.68;14.62;102153.79;84481;1335;24283;-80
2022/03/27 09:04:00;;;;;;;1.60;0.70;;;;;;;19.76;14.57;102148.05;84488;1337;22600;-77
2022/03/27 09:06:12;;;;;;;1.10;0.60;;;;;;;19.77;14.48;102138.83;84493;1336;22632;-77
2022/03/27 09:08:21;;;;;;;1.50;0.80;;;;;;;19.60;14.50;102140.49;84420;1334;22609;-76
2022/03/27 09:10:30;;;;;;;1.60;0.70;;;;;;;19.58;14.76;102140.95;84383;1336;22673;-75
2022/03/27 09:12:39;;;;;;;2.80;0.80;;;;;;;19.82;14.87;102142.48;84478;1334;22622;-74
2022/03/27 09:14:50;;;;;;;2.00;1.00;;;;;;;20.18;14.50;102143.02;84434;1334;25633;-79
2022/03/27 09:17:07;;;;;;;3.60;1.60;;;;;;;20.44;14.09;102136.89;84488;1334;22717;-74
2022/03/27 09:19:21;;;;;;;1.90;1.10;;;;;;;20.56;14.34;102139.46;84440;1333;24253;-76
2022/03/27 09:21:33;;;;;;;2.70;1.20;;;;;;;20.64;14.13;102137.50;84478;1327;22816;-80
2022/03/27 09:23:41;;;;;;;3.00;1.30;;;;;;;20.38;14.23;102137.38;84470;1338;25287;-79
2022/03/27 09:25:56;;;;;;;2.20;1.10;;;;;;;20.48;15.08;102132.27;84456;1334;22598;-76
2022/03/27 09:28:08;;;;;;;2.20;0.90;;;;;;;20.92;14.63;102137.98;84455;1333;22660;-77
2022/03/27 09:30:19;;;;;;;2.70;1.00;;;;;;;20.95;14.05;102141.00;84428;1334;24225;-78
2022/03/27 09:32:32;;;;;;;2.40;1.00;;;;;;;20.59;13.94;102145.54;84458;1333;22613;-76
2022/03/27 09:35:01;;;;;;;1.80;0.90;;;;;;;20.23;14.18;102146.64;84451;1334;22588;-76
2022/03/27 09:37:30;;;;;;;3.80;0.80;;;;;;;20.02;14.48;102147.48;84460;1333;23873;-78
2022/03/27 09:39:39;;;;;;;2.00;1.50;;;;;;;19.96;14.54;102150.32;84471;1337;23187;-80
2022/03/27 09:41:51;;;;;;;1.20;0.70;;;;;;;19.76;14.50;102150.21;84458;1338;25520;-79
2022/03/27 09:44:05;;;;;;;1.30;0.90;;;;;;;19.57;14.55;102142.42;84455;1332;22635;-79
2022/03/27 09:46:17;;;;;;;2.00;0.60;;;;;;;19.47;14.82;102135.45;84445;1338;23933;-80
2022/03/27 09:48:25;;;;;;;2.20;1.00;;;;;;;19.40;14.98;102137.17;84463;1337;22698;-80
2022/03/27 09:50:38;;;;;;;1.30;1.10;;;;;;;19.30;14.97;102125.11;84484;1334;25338;-76
2022/03/27 09:52:47;;;;;;;2.90;1.20;;;;;;;19.09;15.11;102132.06;84449;1333;22795;-75
2022/03/27 09:55:00;;;;;;;3.10;1.10;;;;;;;18.86;15.46;102137.70;84422;1334;22629;-76
2022/03/27 09:57:18;;;;;;;1.70;0.80;;;;;;;18.53;15.47;102134.71;84465;1334;25957;-76
2022/03/27 09:59:34;;;;;;;1.90;1.00;;;;;;;18.18;15.88;102133.00;84444;1332;23950;-76
2022/03/27 10:01:46;;;;;;;2.40;1.00;;;;;;;17.71;15.84;102137.41;84477;1338;22596;-75
2022/03/27 10:04:13;;;;;;;2.60;1.30;;;;;;;17.18;16.47;102142.60;84496;1337;22603;-75
2022/03/27 10:06:33;;;;;;;1.90;0.80;;;;;;;16.73;16.77;102131.71;84400;1338;22597;-76
2022/03/27 10:08:42;;;;;;;1.60;0.80;;;;;;;16.37;16.89;102123.27;84416;1338;24252;-75
2022/03/27 10:10:50;;;;;;;1.60;0.80;;;;;;;16.06;17.30;102117.44;84454;1338;22730;-75
2022/03/27 10:13:06;;;;;;;2.40;1.00;;;;;;;15.94;18.00;102109.22;84467;1337;25523;-76